Terminal Aerodrome Forecast
Issued by NWS Springfield, MO

Home | Current Version | Previous Version | Text Only | Print | Product List | Glossary On
Versions: 1 2 3 4 5 6 7 8 9 10 11 12 13 14 15 16 17 18 19 20
000
FTUS43 KSGF 261100
TAFSGF
TAF
KSGF 261120Z 2612/2712 01013KT P6SM VCSH BKN010 OVC015
      TEMPO 2612/2613 6SM -RA
     FM261500 36012G17KT P6SM SCT015
     FM261800 35012G17KT P6SM SKC
     FM262200 34005KT P6SM SKC
     FM270600 VRB03KT P6SM BKN040 PROB30 2709/2712 P6SM -RA OVC040=

USA.gov is the U.S. government's official web portal to all federal, state and local government web resources and services.